Flight Track Log - Related Links

Times and Time Zones

All times are in EDT time to prevent confusion due to time zone crossing. See the KAP82 flight status page for this flight to view local times or setup timezone preferences in your user account.

Time Position Orientation Groundspeed Altitude Reporting Facility
EDT Latitude Longitude Course Direction KTS MPH feet Rate Location/Type
Mon 06:49:43 AM 42.3667 -71.0167 164° South 124 143 500  Level KA90
Mon 06:50:37 AM 42.3333 -71.0333 200° South 107 123 1,300 737 Climbing KA90
Mon 06:51:37 AM 42.3167 -71.0500 216° Southwest 121 139 1,900 550 Climbing KA90
Mon 06:52:37 AM 42.2833 -71.0833 216° Southwest 141 162 2,400 476 Climbing KA90
Mon 06:53:43 AM 42.2333 -71.0500 154° Southeast 153 176 2,900 286 Climbing KA90
Mon 06:54:43 AM 42.2000 -71.0167 143° Southeast 176 203 3,000 56 Climbing KA90
Mon 06:55:00 AM 42.1869 -70.9342 164° South  Level Estimated
Mon 06:55:31 AM 42.1667 -70.9833 143° Southeast 174 200 3,000  Level KA90
Mon 06:56:31 AM 42.1333 -70.9333 132° Southeast 167 192 3,000  Level KA90
Mon 06:57:25 AM 42.1000 -70.9000 143° Southeast 167 192 3,000  Level KA90
Mon 06:58:25 AM 42.0667 -70.8667 143° Southeast 164 189 3,000  Level KA90
Mon 07:00:00 AM 42.0195 -70.8509 166° South  Level FlightAware Approximate
Mon 07:07:00 AM 41.8109 -70.7832 162° South  Level FlightAware Approximate
Mon 07:08:00 AM 41.7817 -70.7707 162° South  Level FlightAware Approximate
Mon 07:09:00 AM 41.7525 -70.7582 162° South  Level FlightAware Approximate
Mon 07:10:00 AM 41.7233 -70.7456 162° South  Level FlightAware Approximate
Mon 07:11:00 AM 41.6942 -70.7326 162° South  Level FlightAware Approximate
Mon 07:12:00 AM 41.6651 -70.7197 162° South  Level FlightAware Approximate
Mon 07:13:00 AM 41.6360 -70.7067 162° South  Level FlightAware Approximate
Mon 07:14:00 AM 41.6069 -70.6938 162° South  Level FlightAware Approximate
Mon 07:15:00 AM 41.5778 -70.6809 162° South  Level FlightAware Approximate
Mon 07:16:00 AM 41.5486 -70.6684 162° South  Level FlightAware Approximate
Mon 07:17:00 AM 41.5194 -70.6559 162° South  Level FlightAware Approximate
Mon 07:18:00 AM 41.4902 -70.6434 162° South  Level FlightAware Approximate
Mon 07:19:00 AM 41.4609 -70.6311 163° South  Level FlightAware Approximate
Mon 07:20:00 AM 41.4316 -70.6193 163° South  Level FlightAware Approximate
Mon 07:21:00 AM 41.4022 -70.6075 163° South  Level FlightAware Approximate
Mon 07:22:00 AM 41.3934 -70.6139 163° South  Level Estimated

Login

Don't have an account? Register now (free) for customized features, flight alerts, and more!